Time;durP1;ratioP1;P1;durP2;ratioP2;P2;SDS_P1;SDS_P2;PMS_P1;PMS_P2;Temp;Humidity;BMP_temperature;BMP_pressure;BME280_temperature;BME280_humidity;BME280_pressure;Samples;Min_cycle;Max_cycle;Signal;HPM_P1;HPM_P2
2022/07/02 00:01:50;;;;;;;12.23;5.55;;;;;;;;;;5012162;28;20026;-82
2022/07/02 00:04:17;;;;;;;9.73;5.15;;;;;;;;;;5011716;28;20034;-82
2022/07/02 00:06:42;;;;;;;9.60;5.47;;;;;;;;;;5028594;28;20029;-82
2022/07/02 00:09:08;;;;;;;10.93;6.40;;;;;;;;;;5012209;28;20382;-82
2022/07/02 00:11:33;;;;;;;8.77;4.53;;;;;;;;;;5011988;28;20400;-83
2022/07/02 00:13:59;;;;;;;7.40;4.57;;;;;;;;;;5012164;28;20037;-83
2022/07/02 00:16:24;;;;;;;9.20;4.72;;;;;;;;;;5011837;28;20038;-82
2022/07/02 00:18:49;;;;;;;10.35;4.82;;;;;;;;;;5011849;28;20041;-82
2022/07/02 00:21:15;;;;;;;10.07;4.78;;;;;;;;;;5031231;28;20524;-83
2022/07/02 00:23:40;;;;;;;9.52;5.03;;;;;;;;;;5015105;28;20119;-82
2022/07/02 00:26:15;;;;;;;9.18;3.95;;;;;;;;;;4982702;28;20613;-82
2022/07/02 00:28:41;;;;;;;6.95;3.50;;;;;;;;;;5032029;28;20069;-81
2022/07/02 00:31:07;;;;;;;7.78;3.78;;;;;;;;;;4982236;28;20044;-82
2022/07/02 00:33:34;;;;;;;6.78;3.53;;;;;;;;;;4998288;28;20050;-82
2022/07/02 00:36:00;;;;;;;7.70;3.53;;;;;;;;;;4998619;28;20784;-81
2022/07/02 00:38:25;;;;;;;7.65;4.30;;;;;;;;;;4998578;28;20071;-81
2022/07/02 00:40:51;;;;;;;7.13;3.85;;;;;;;;;;5014825;28;20045;-82
2022/07/02 00:43:18;;;;;;;7.95;3.17;;;;;;;;;;4982213;28;20069;-82
2022/07/02 00:45:43;;;;;;;6.78;3.45;;;;;;;;;;4982300;28;20491;-83
2022/07/02 00:48:11;;;;;;;8.15;3.97;;;;;;;;;;5031109;28;20037;-82
2022/07/02 00:50:37;;;;;;;6.22;3.45;;;;;;;;;;5014267;28;20026;-82
2022/07/02 00:53:03;;;;;;;5.50;3.35;;;;;;;;;;5031246;28;20484;-82
2022/07/02 00:55:29;;;;;;;5.47;2.78;;;;;;;;;;5014483;28;20044;-82
2022/07/02 00:57:54;;;;;;;5.80;2.60;;;;;;;;;;4994352;28;20025;-83
2022/07/02 01:00:20;;;;;;;5.57;2.83;;;;;;;;;;4994881;28;20108;-83
2022/07/02 01:02:45;;;;;;;6.43;2.88;;;;;;;;;;4994959;28;20041;-83
2022/07/02 01:05:15;;;;;;;6.32;2.88;;;;;;;;;;5011020;28;20034;-83
2022/07/02 01:07:42;;;;;;;5.63;2.47;;;;;;;;;;5027631;28;20113;-83
2022/07/02 01:10:16;;;;;;;4.40;2.60;;;;;;;;;;4995110;28;20053;-83
2022/07/02 01:12:43;;;;;;;4.03;2.75;;;;;;;;;;5028830;28;20718;-82
2022/07/02 01:15:09;;;;;;;4.25;2.53;;;;;;;;;;5010330;28;20064;-82
2022/07/02 01:17:34;;;;;;;6.28;2.78;;;;;;;;;;5010980;28;20033;-82
2022/07/02 01:20:04;;;;;;;3.67;2.05;;;;;;;;;;5012458;28;20504;-81
2022/07/02 01:22:33;;;;;;;4.78;1.98;;;;;;;;;;5001274;28;20051;-81
2022/07/02 01:24:59;;;;;;;4.97;2.70;;;;;;;;;;5014386;28;20151;-82
2022/07/02 01:27:24;;;;;;;5.22;1.92;;;;;;;;;;5030405;28;20064;-82
2022/07/02 01:29:50;;;;;;;4.72;2.17;;;;;;;;;;5030341;28;20171;-82
2022/07/02 01:32:16;;;;;;;3.88;1.70;;;;;;;;;;5030675;28;20100;-83
2022/07/02 01:34:48;;;;;;;4.38;2.15;;;;;;;;;;5030219;28;20072;-81
2022/07/02 01:37:16;;;;;;;4.90;2.28;;;;;;;;;;5030537;28;20025;-82
2022/07/02 01:39:42;;;;;;;3.63;1.88;;;;;;;;;;5030170;28;20029;-82
2022/07/02 01:42:07;;;;;;;5.30;1.67;;;;;;;;;;5030450;28;20064;-81
2022/07/02 01:44:33;;;;;;;5.13;1.58;;;;;;;;;;5027027;28;20026;-82
2022/07/02 01:47:00;;;;;;;3.35;1.80;;;;;;;;;;4994321;28;20030;-82
2022/07/02 01:49:25;;;;;;;4.43;1.50;;;;;;;;;;5013388;28;20113;-82
2022/07/02 01:51:51;;;;;;;3.05;1.75;;;;;;;;;;4981032;28;20041;-81
2022/07/02 01:54:16;;;;;;;2.88;1.48;;;;;;;;;;4981578;28;20066;-82
2022/07/02 01:56:42;;;;;;;3.95;1.33;;;;;;;;;;5013511;28;20029;-81
2022/07/02 01:59:07;;;;;;;2.28;1.38;;;;;;;;;;5013753;28;20076;-82
2022/07/02 02:01:33;;;;;;;3.30;1.63;;;;;;;;;;5030245;28;20087;-82
2022/07/02 02:03:59;;;;;;;3.70;1.30;;;;;;;;;;4981095;28;20056;-82
2022/07/02 02:06:24;;;;;;;3.85;1.55;;;;;;;;;;5030022;28;20491;-82
2022/07/02 02:08:50;;;;;;;2.88;1.20;;;;;;;;;;5013689;28;20074;-81
2022/07/02 02:11:15;;;;;;;5.40;2.00;;;;;;;;;;4981305;28;20025;-81
2022/07/02 02:13:41;;;;;;;3.33;1.13;;;;;;;;;;5029884;28;20124;-82
2022/07/02 02:16:06;;;;;;;3.97;1.40;;;;;;;;;;5013436;28;20423;-82
2022/07/02 02:18:32;;;;;;;2.70;1.35;;;;;;;;;;5029935;28;20072;-82
2022/07/02 02:20:57;;;;;;;3.15;1.15;;;;;;;;;;5029994;28;20033;-81
2022/07/02 02:23:23;;;;;;;2.72;1.35;;;;;;;;;;5026884;28;20041;-81
2022/07/02 02:25:49;;;;;;;2.13;1.02;;;;;;;;;;4997749;28;20385;-81
2022/07/02 02:28:14;;;;;;;3.20;1.42;;;;;;;;;;5001156;28;20052;-81
2022/07/02 02:30:40;;;;;;;3.35;1.73;;;;;;;;;;5000501;28;20041;-81
2022/07/02 02:33:05;;;;;;;3.25;1.58;;;;;;;;;;5001039;28;20435;-81
2022/07/02 02:35:31;;;;;;;4.30;1.50;;;;;;;;;;5001071;28;20117;-81
2022/07/02 02:37:56;;;;;;;4.18;1.75;;;;;;;;;;5000599;28;20034;-82
2022/07/02 02:40:22;;;;;;;3.20;1.52;;;;;;;;;;5000745;28;20064;-82
2022/07/02 02:42:47;;;;;;;2.85;1.60;;;;;;;;;;5000926;28;20401;-81
2022/07/02 02:45:13;;;;;;;3.30;1.70;;;;;;;;;;4984245;28;20030;-82
2022/07/02 02:47:39;;;;;;;4.50;1.90;;;;;;;;;;5016969;28;20895;-82
2022/07/02 02:50:05;;;;;;;3.47;1.80;;;;;;;;;;5033284;28;20558;-82
2022/07/02 02:52:30;;;;;;;4.05;1.70;;;;;;;;;;5000611;28;20041;-81
2022/07/02 02:54:56;;;;;;;3.03;1.63;;;;;;;;;;5016826;28;20076;-81
2022/07/02 02:57:21;;;;;;;5.40;2.00;;;;;;;;;;5029799;28;20037;-81
2022/07/02 02:59:48;;;;;;;3.97;1.50;;;;;;;;;;5013075;28;20030;-81
2022/07/02 03:02:13;;;;;;;3.70;1.65;;;;;;;;;;5013280;28;20112;-82
2022/07/02 03:04:38;;;;;;;4.30;2.17;;;;;;;;;;5013177;28;20030;-82
2022/07/02 03:07:04;;;;;;;3.40;1.77;;;;;;;;;;5013636;28;20452;-82
2022/07/02 03:09:29;;;;;;;3.53;1.50;;;;;;;;;;5013443;28;20042;-82
2022/07/02 03:11:55;;;;;;;2.90;1.52;;;;;;;;;;5012949;28;20405;-81
2022/07/02 03:14:20;;;;;;;3.58;1.63;;;;;;;;;;5012917;28;20069;-82
2022/07/02 03:16:46;;;;;;;3.03;1.58;;;;;;;;;;4996584;28;20420;-81
2022/07/02 03:19:11;;;;;;;3.45;1.67;;;;;;;;;;5013203;28;20499;-82
2022/07/02 03:21:37;;;;;;;2.22;1.20;;;;;;;;;;5040231;28;20037;-82
2022/07/02 03:24:02;;;;;;;3.47;1.52;;;;;;;;;;5041078;28;20049;-81
2022/07/02 03:26:28;;;;;;;3.03;1.23;;;;;;;;;;5032834;28;20041;-82
2022/07/02 03:28:53;;;;;;;2.83;1.50;;;;;;;;;;5032670;28;20029;-82
2022/07/02 03:31:19;;;;;;;2.83;1.67;;;;;;;;;;5032470;28;20034;-82
2022/07/02 03:33:44;;;;;;;2.33;1.15;;;;;;;;;;5032523;28;20412;-82
2022/07/02 03:36:11;;;;;;;3.30;1.35;;;;;;;;;;5048965;28;20033;-81
2022/07/02 03:38:38;;;;;;;2.58;1.30;;;;;;;;;;5032117;28;20030;-82
2022/07/02 03:41:03;;;;;;;2.80;1.30;;;;;;;;;;5032598;28;20022;-81
2022/07/02 03:43:28;;;;;;;3.42;1.50;;;;;;;;;;5048783;28;20071;-81
2022/07/02 03:45:54;;;;;;;2.78;1.45;;;;;;;;;;5012179;28;20038;-82
2022/07/02 03:48:19;;;;;;;3.28;1.30;;;;;;;;;;5012458;28;20046;-81
2022/07/02 03:50:45;;;;;;;3.17;1.55;;;;;;;;;;5039765;28;20500;-82
2022/07/02 03:53:10;;;;;;;3.50;1.42;;;;;;;;;;5029343;28;20080;-81
2022/07/02 03:55:35;;;;;;;3.03;1.35;;;;;;;;;;5012272;28;20416;-81
2022/07/02 03:58:01;;;;;;;1.98;1.15;;;;;;;;;;5028781;28;20167;-81
2022/07/02 04:00:27;;;;;;;3.25;1.50;;;;;;;;;;5048549;28;20037;-81
2022/07/02 04:02:52;;;;;;;1.83;1.27;;;;;;;;;;5015866;28;20029;-81
2022/07/02 04:05:17;;;;;;;2.35;1.33;;;;;;;;;;5014960;28;20048;-81
2022/07/02 04:07:43;;;;;;;3.70;1.35;;;;;;;;;;5032154;28;20044;-82
2022/07/02 04:10:09;;;;;;;3.03;1.50;;;;;;;;;;4999208;28;20033;-81
2022/07/02 04:12:34;;;;;;;2.65;1.23;;;;;;;;;;5015604;28;20088;-82
2022/07/02 04:15:00;;;;;;;3.38;1.30;;;;;;;;;;5031903;28;20152;-82
2022/07/02 04:17:25;;;;;;;2.90;1.27;;;;;;;;;;5031589;28;20041;-82
2022/07/02 04:19:51;;;;;;;3.33;1.33;;;;;;;;;;5031567;28;20033;-82
2022/07/02 04:22:17;;;;;;;5.68;1.10;;;;;;;;;;5031648;28;20037;-82
2022/07/02 04:24:42;;;;;;;1.75;1.00;;;;;;;;;;5028551;28;20065;-81
2022/07/02 04:27:08;;;;;;;3.88;1.45;;;;;;;;;;4995170;28;20042;-82
2022/07/02 04:29:33;;;;;;;2.45;1.13;;;;;;;;;;4995390;28;20033;-82
2022/07/02 04:31:59;;;;;;;4.20;1.33;;;;;;;;;;5011808;28;20067;-82
2022/07/02 04:34:24;;;;;;;3.25;1.13;;;;;;;;;;4979047;28;20053;-81
2022/07/02 04:36:50;;;;;;;4.10;1.77;;;;;;;;;;5011584;28;20124;-82
2022/07/02 04:39:15;;;;;;;2.17;1.05;;;;;;;;;;4995208;28;20046;-82
2022/07/02 04:41:41;;;;;;;2.60;1.08;;;;;;;;;;5011200;28;20447;-83
2022/07/02 04:44:07;;;;;;;2.50;1.40;;;;;;;;;;4997075;28;20477;-82
2022/07/02 04:46:32;;;;;;;3.03;1.15;;;;;;;;;;5031184;28;20056;-82
2022/07/02 04:48:58;;;;;;;2.50;1.17;;;;;;;;;;5014812;28;20033;-82
2022/07/02 04:51:24;;;;;;;3.17;1.10;;;;;;;;;;5011115;28;20038;-83
2022/07/02 04:53:49;;;;;;;3.80;1.20;;;;;;;;;;4995181;28;20061;-83
2022/07/02 04:56:14;;;;;;;1.60;0.82;;;;;;;;;;5029983;28;20120;-82
2022/07/02 04:58:40;;;;;;;2.35;0.80;;;;;;;;;;5014446;28;20176;-83
2022/07/02 05:01:05;;;;;;;2.97;1.20;;;;;;;;;;5030778;28;20049;-84
2022/07/02 05:03:31;;;;;;;2.50;0.80;;;;;;;;;;5030531;28;20037;-82
2022/07/02 05:05:57;;;;;;;2.78;0.95;;;;;;;;;;5030769;28;20052;-82
2022/07/02 05:08:26;;;;;;;4.97;0.70;;;;;;;;;;5030948;28;20083;-82
2022/07/02 05:10:52;;;;;;;2.42;0.95;;;;;;;;;;5014534;28;20047;-82
2022/07/02 05:13:18;;;;;;;2.63;0.75;;;;;;;;;;5030989;28;20038;-82
2022/07/02 05:15:45;;;;;;;2.50;1.05;;;;;;;;;;5013971;28;20108;-83
2022/07/02 05:18:11;;;;;;;4.68;1.80;;;;;;;;;;5030595;28;20095;-83
2022/07/02 05:20:37;;;;;;;4.18;0.85;;;;;;;;;;5030661;28;20025;-83
2022/07/02 05:23:03;;;;;;;2.83;0.80;;;;;;;;;;5043680;28;20037;-82
2022/07/02 05:25:28;;;;;;;2.95;0.95;;;;;;;;;;5043698;28;20038;-82
2022/07/02 05:27:54;;;;;;;5.50;1.17;;;;;;;;;;5027404;28;20042;-82
2022/07/02 05:30:19;;;;;;;2.53;0.60;;;;;;;;;;5010466;28;20038;-82
2022/07/02 05:32:44;;;;;;;1.60;0.63;;;;;;;;;;5027254;28;20408;-82
2022/07/02 05:35:10;;;;;;;1.88;0.60;;;;;;;;;;5043769;28;20484;-82
2022/07/02 05:37:35;;;;;;;2.28;0.80;;;;;;;;;;5043966;28;20037;-83
2022/07/02 05:40:01;;;;;;;1.58;0.73;;;;;;;;;;5010220;28;20034;-83
2022/07/02 05:42:27;;;;;;;2.58;0.90;;;;;;;;;;5044488;28;20034;-84
2022/07/02 05:44:52;;;;;;;1.63;0.50;;;;;;;;;;5042404;28;20038;-84
2022/07/02 05:47:18;;;;;;;1.48;0.60;;;;;;;;;;5014129;28;20120;-83
2022/07/02 05:49:44;;;;;;;1.80;0.40;;;;;;;;;;5014028;28;20025;-84
2022/07/02 05:52:10;;;;;;;2.78;0.40;;;;;;;;;;5013405;28;20099;-82
2022/07/02 05:54:35;;;;;;;2.92;0.45;;;;;;;;;;5013580;28;20033;-84
2022/07/02 05:57:02;;;;;;;1.38;0.68;;;;;;;;;;5004621;28;20492;-84
2022/07/02 05:59:27;;;;;;;2.38;0.95;;;;;;;;;;5014256;28;20041;-85
2022/07/02 06:01:52;;;;;;;3.95;0.63;;;;;;;;;;5016942;28;20045;-86
2022/07/02 06:04:22;;;;;;;4.53;0.77;;;;;;;;;;5019276;28;20037;-91
2022/07/02 06:09:33;;;;;;;2.50;0.80;;;;;;;;;;5020894;28;20507;-88
2022/07/02 06:12:02;;;;;;;2.13;0.43;;;;;;;;;;5018962;28;20045;-88
2022/07/02 06:14:29;;;;;;;5.18;0.60;;;;;;;;;;5002326;28;20029;-88
2022/07/02 06:16:55;;;;;;;6.22;0.68;;;;;;;;;;5018476;28;20087;-87
2022/07/02 06:19:21;;;;;;;1.77;0.77;;;;;;;;;;5018767;28;20060;-89
2022/07/02 06:21:49;;;;;;;4.40;0.68;;;;;;;;;;5018993;28;20136;-88
2022/07/02 06:24:18;;;;;;;2.53;0.70;;;;;;;;;;5035410;28;20025;-92
2022/07/02 06:26:45;;;;;;;3.13;0.63;;;;;;;;;;5018914;28;20091;-90
2022/07/02 06:29:12;;;;;;;3.50;0.60;;;;;;;;;;5035266;28;20063;-88
2022/07/02 06:31:37;;;;;;;5.25;0.80;;;;;;;;;;5034821;28;20086;-90
2022/07/02 06:34:04;;;;;;;8.93;1.10;;;;;;;;;;5051417;28;20025;-87
2022/07/02 06:36:33;;;;;;;3.35;0.82;;;;;;;;;;5034909;28;20456;-88
2022/07/02 06:38:59;;;;;;;9.80;1.10;;;;;;;;;;5034189;28;20043;-87
2022/07/02 06:44:12;;;;;;;4.00;1.08;;;;;;;;;;5054059;28;20614;-88
2022/07/02 06:46:40;;;;;;;3.13;0.50;;;;;;;;;;5034539;28;20033;-88
2022/07/02 06:49:07;;;;;;;4.05;0.63;;;;;;;;;;5018512;28;20033;-88
2022/07/02 06:51:32;;;;;;;2.65;0.55;;;;;;;;;;5037918;28;20039;-88
2022/07/02 06:54:01;;;;;;;2.28;0.50;;;;;;;;;;5021151;28;20116;-88
2022/07/02 06:56:32;;;;;;;4.93;1.35;;;;;;;;;;5033687;28;20036;-88
2022/07/02 06:58:57;;;;;;;4.38;0.50;;;;;;;;;;5002139;28;20038;-88
2022/07/02 07:01:24;;;;;;;3.33;0.40;;;;;;;;;;4984991;28;20492;-88
2022/07/02 07:03:49;;;;;;;3.08;0.47;;;;;;;;;;4985404;28;20056;-87
2022/07/02 07:06:16;;;;;;;2.08;0.40;;;;;;;;;;5001654;28;20091;-88
2022/07/02 07:08:41;;;;;;;1.92;0.50;;;;;;;;;;4985240;28;20033;-88
2022/07/02 07:11:09;;;;;;;2.58;0.60;;;;;;;;;;4985228;28;20047;-88
2022/07/02 07:13:37;;;;;;;1.50;0.40;;;;;;;;;;4984346;28;20083;-88
2022/07/02 07:16:03;;;;;;;1.08;0.30;;;;;;;;;;5001146;28;20034;-88
2022/07/02 07:18:29;;;;;;;2.65;0.30;;;;;;;;;;4984998;28;20060;-88
2022/07/02 07:20:56;;;;;;;2.83;0.30;;;;;;;;;;4985126;28;20044;-87
2022/07/02 07:23:22;;;;;;;2.97;0.40;;;;;;;;;;5017166;28;20558;-87
2022/07/02 07:25:50;;;;;;;1.00;0.30;;;;;;;;;;5030528;28;20619;-88
2022/07/02 07:28:16;;;;;;;1.00;0.20;;;;;;;;;;4997966;28;20030;-88
2022/07/02 07:30:43;;;;;;;1.92;0.38;;;;;;;;;;5013932;28;20172;-88
2022/07/02 07:33:08;;;;;;;1.92;0.30;;;;;;;;;;5013967;28;20077;-88
2022/07/02 07:35:37;;;;;;;1.25;0.30;;;;;;;;;;5026742;28;20037;-87
2022/07/02 07:38:03;;;;;;;0.80;0.57;;;;;;;;;;5043894;28;20179;-89
2022/07/02 07:40:29;;;;;;;3.35;0.43;;;;;;;;;;5033093;28;20083;-89
2022/07/02 07:43:02;;;;;;;2.40;0.50;;;;;;;;;;5017532;28;20037;-88
2022/07/02 07:45:29;;;;;;;0.77;0.35;;;;;;;;;;5014245;28;20037;-87
2022/07/02 07:47:59;;;;;;;0.60;0.13;;;;;;;;;;5013964;28;20030;-86
2022/07/02 07:50:28;;;;;;;1.33;0.30;;;;;;;;;;5004719;28;20518;-86
2022/07/02 07:52:56;;;;;;;1.35;0.55;;;;;;;;;;5016648;28;20033;-86
2022/07/02 07:55:22;;;;;;;3.38;0.57;;;;;;;;;;5016241;28;20037;-87
2022/07/02 07:57:49;;;;;;;1.85;0.40;;;;;;;;;;5000270;28;20092;-87
2022/07/02 08:00:15;;;;;;;0.85;0.25;;;;;;;;;;4997548;28;20030;-88
2022/07/02 08:02:40;;;;;;;1.00;0.38;;;;;;;;;;5016526;28;20034;-87
2022/07/02 08:05:07;;;;;;;1.73;0.43;;;;;;;;;;5015818;28;20041;-87
2022/07/02 08:07:37;;;;;;;2.05;0.47;;;;;;;;;;5016401;28;20041;-85
2022/07/02 08:10:05;;;;;;;0.80;0.25;;;;;;;;;;5016106;28;20132;-86
2022/07/02 08:12:31;;;;;;;1.13;0.20;;;;;;;;;;5000796;28;20091;-86
2022/07/02 08:14:59;;;;;;;1.15;0.30;;;;;;;;;;5000291;28;20455;-87
2022/07/02 08:17:25;;;;;;;1.13;0.28;;;;;;;;;;5016212;28;20072;-87
2022/07/02 08:19:53;;;;;;;1.40;0.22;;;;;;;;;;5016192;28;20107;-86
2022/07/02 08:22:19;;;;;;;1.67;0.30;;;;;;;;;;4997012;28;20042;-86
2022/07/02 08:24:45;;;;;;;0.90;0.40;;;;;;;;;;5026294;28;20107;-86
2022/07/02 08:27:10;;;;;;;2.50;0.40;;;;;;;;;;4996564;28;20558;-87
2022/07/02 08:29:35;;;;;;;1.92;0.30;;;;;;;;;;5028761;28;20038;-86
2022/07/02 08:32:01;;;;;;;0.70;0.20;;;;;;;;;;5014022;28;20042;-87
2022/07/02 08:34:26;;;;;;;1.20;0.25;;;;;;;;;;5030849;28;20041;-85
2022/07/02 08:36:52;;;;;;;1.00;0.28;;;;;;;;;;5030670;28;20042;-88
2022/07/02 08:39:17;;;;;;;1.00;0.30;;;;;;;;;;5014465;28;20499;-87
2022/07/02 08:41:43;;;;;;;1.88;0.20;;;;;;;;;;5014588;28;20049;-86
2022/07/02 08:44:08;;;;;;;0.85;0.20;;;;;;;;;;5014922;28;20455;-82
2022/07/02 08:46:38;;;;;;;1.77;0.40;;;;;;;;;;5014589;28;20491;-83
2022/07/02 08:49:04;;;;;;;1.40;0.30;;;;;;;;;;5015107;28;20070;-81
2022/07/02 08:51:29;;;;;;;2.20;0.73;;;;;;;;;;4998205;28;20041;-82
2022/07/02 08:53:55;;;;;;;2.30;0.40;;;;;;;;;;4998500;28;20049;-83
2022/07/02 08:56:21;;;;;;;1.00;0.13;;;;;;;;;;4995251;28;20053;-80
2022/07/02 08:58:46;;;;;;;1.42;0.40;;;;;;;;;;4994800;28;20041;-80
2022/07/02 09:01:12;;;;;;;1.63;0.30;;;;;;;;;;4994950;28;20100;-84
2022/07/02 09:03:38;;;;;;;2.10;0.10;;;;;;;;;;4979148;28;20052;-89
2022/07/02 09:06:04;;;;;;;0.47;0.20;;;;;;;;;;5012263;28;20084;-89
2022/07/02 09:08:30;;;;;;;1.75;0.20;;;;;;;;;;5028341;28;20041;-91
2022/07/02 09:10:55;;;;;;;0.70;0.10;;;;;;;;;;5012328;28;20041;-90
2022/07/02 09:13:21;;;;;;;1.30;0.38;;;;;;;;;;5012488;28;20077;-89
2022/07/02 09:15:46;;;;;;;0.65;0.10;;;;;;;;;;5012183;28;20034;-87
2022/07/02 09:18:12;;;;;;;1.65;0.28;;;;;;;;;;4995568;28;20087;-87
2022/07/02 09:20:37;;;;;;;1.30;0.15;;;;;;;;;;5014944;28;20094;-89
2022/07/02 09:23:07;;;;;;;1.48;0.20;;;;;;;;;;5029517;28;20033;-89
2022/07/02 09:25:33;;;;;;;2.50;0.40;;;;;;;;;;5011771;28;20034;-89
2022/07/02 09:28:03;;;;;;;2.03;0.38;;;;;;;;;;4995706;28;20041;-90
2022/07/02 09:30:35;;;;;;;1.98;0.20;;;;;;;;;;5011415;28;20044;-86
2022/07/02 09:35:45;;;;;;;1.88;0.60;;;;;;;;;;5015212;28;20038;-85
2022/07/02 09:38:11;;;;;;;2.17;0.30;;;;;;;;;;4994417;28;20034;-85
2022/07/02 09:40:39;;;;;;;1.13;0.30;;;;;;;;;;4994557;28;20046;-85
2022/07/02 09:43:05;;;;;;;1.77;0.22;;;;;;;;;;5027636;28;20073;-85
2022/07/02 09:45:30;;;;;;;1.67;0.30;;;;;;;;;;5016492;28;20446;-85
2022/07/02 09:47:55;;;;;;;1.52;0.40;;;;;;;;;;5008300;28;20033;-85
2022/07/02 09:50:22;;;;;;;0.60;0.30;;;;;;;;;;5024097;28;20042;-85
2022/07/02 09:52:52;;;;;;;1.33;0.20;;;;;;;;;;5027432;28;20481;-85
2022/07/02 09:55:19;;;;;;;0.90;0.28;;;;;;;;;;5010651;28;20030;-85
2022/07/02 09:58:01;;;;;;;1.67;0.52;;;;;;;;;;4997949;28;20069;-85
2022/07/02 10:00:29;;;;;;;0.93;0.20;;;;;;;;;;4998911;28;20029;-85
2022/07/02 10:02:56;;;;;;;1.10;0.65;;;;;;;;;;5014054;28;20818;-84
2022/07/02 10:05:27;;;;;;;2.00;0.32;;;;;;;;;;5013913;28;20498;-85
2022/07/02 10:07:56;;;;;;;1.55;0.40;;;;;;;;;;5014384;28;20030;-85
2022/07/02 10:10:38;;;;;;;0.93;0.13;;;;;;;;;;5014571;28;20034;-85
2022/07/02 10:13:05;;;;;;;;;;;;;;;;;;5031908;28;20025;-85
2022/07/02 10:15:31;;;;;;;3.30;0.15;;;;;;;;;;5014110;28;20375;-84
2022/07/02 10:17:57;;;;;;;1.40;0.20;;;;;;;;;;4997672;28;20041;-85
2022/07/02 10:20:23;;;;;;;0.88;0.10;;;;;;;;;;5046654;28;20026;-85
2022/07/02 10:22:52;;;;;;;1.60;0.40;;;;;;;;;;5030198;28;20033;-85
2022/07/02 10:25:18;;;;;;;0.77;0.30;;;;;;;;;;4981455;28;20034;-85
2022/07/02 10:27:44;;;;;;;2.53;0.55;;;;;;;;;;4997868;28;20052;-85
2022/07/02 10:30:10;;;;;;;0.85;0.28;;;;;;;;;;4997365;28;20041;-87
2022/07/02 10:32:40;;;;;;;2.63;0.20;;;;;;;;;;4982101;28;20038;-86
2022/07/02 10:35:11;;;;;;;2.88;0.25;;;;;;;;;;4997858;28;20037;-87
2022/07/02 10:37:38;;;;;;;1.33;0.17;;;;;;;;;;4981868;28;20032;-87
2022/07/02 10:40:04;;;;;;;0.75;0.28;;;;;;;;;;4997756;28;20116;-86
2022/07/02 10:42:44;;;;;;;0.45;0.13;;;;;;;;;;4981501;28;20239;-87
2022/07/02 10:45:17;;;;;;;2.83;0.38;;;;;;;;;;5013851;28;20033;-86
2022/07/02 10:47:53;;;;;;;0.40;0.20;;;;;;;;;;5032179;28;20491;-85
2022/07/02 10:50:20;;;;;;;1.83;0.20;;;;;;;;;;5059634;28;20037;-85
2022/07/02 10:52:50;;;;;;;1.85;0.30;;;;;;;;;;5017465;28;20041;-85
2022/07/02 10:55:26;;;;;;;1.20;0.40;;;;;;;;;;5017327;28;20037;-85
2022/07/02 10:57:59;;;;;;;1.27;0.10;;;;;;;;;;4982003;28;20041;-88
2022/07/02 11:00:42;;;;;;;0.70;0.17;;;;;;;;;;5014071;28;20030;-87
2022/07/02 11:03:20;;;;;;;2.20;0.32;;;;;;;;;;5014696;28;20042;-87
2022/07/02 11:05:53;;;;;;;1.02;0.20;;;;;;;;;;5031013;28;20519;-88
2022/07/02 11:08:46;;;;;;;2.70;0.60;;;;;;;;;;5047444;28;20088;-88
2022/07/02 11:11:19;;;;;;;0.80;0.20;;;;;;;;;;5014593;28;20038;-88
2022/07/02 11:13:47;;;;;;;0.55;0.32;;;;;;;;;;4997761;28;20137;-88
2022/07/02 11:16:26;;;;;;;1.10;0.35;;;;;;;;;;5030640;28;20068;-88
2022/07/02 11:18:53;;;;;;;2.15;0.20;;;;;;;;;;5014291;28;20038;-88
2022/07/02 11:21:19;;;;;;;1.00;0.20;;;;;;;;;;5037607;28;20525;-88
2022/07/02 11:23:44;;;;;;;1.15;0.20;;;;;;;;;;4995126;28;20030;-88
2022/07/02 11:26:20;;;;;;;3.17;0.30;;;;;;;;;;5017145;28;20037;-87
2022/07/02 11:28:46;;;;;;;2.30;0.50;;;;;;;;;;5033664;28;20036;-87
2022/07/02 11:31:11;;;;;;;1.98;1.00;;;;;;;;;;5033380;28;20034;-87
2022/07/02 11:33:41;;;;;;;0.47;0.10;;;;;;;;;;5033397;28;20086;-87
2022/07/02 11:36:08;;;;;;;0.77;0.20;;;;;;;;;;5033893;28;20670;-88
2022/07/02 11:38:37;;;;;;;1.63;0.30;;;;;;;;;;5050117;28;20029;-88
2022/07/02 11:41:06;;;;;;;0.98;0.40;;;;;;;;;;5033314;28;20049;-88
2022/07/02 11:43:32;;;;;;;1.08;0.30;;;;;;;;;;5016721;28;20052;-85
2022/07/02 11:45:58;;;;;;;0.60;0.15;;;;;;;;;;5029644;28;20069;-87
2022/07/02 11:48:23;;;;;;;1.80;0.30;;;;;;;;;;5013184;28;20092;-88
2022/07/02 11:50:56;;;;;;;0.57;0.20;;;;;;;;;;5022105;28;20492;-88
2022/07/02 11:53:21;;;;;;;0.98;0.28;;;;;;;;;;5033160;28;20030;-88
2022/07/02 11:55:47;;;;;;;1.35;0.32;;;;;;;;;;5033221;28;20036;-88
2022/07/02 11:58:12;;;;;;;0.82;0.28;;;;;;;;;;5032460;28;20037;-87
2022/07/02 12:00:38;;;;;;;2.90;0.30;;;;;;;;;;5049070;28;20033;-87
2022/07/02 12:03:10;;;;;;;1.52;0.30;;;;;;;;;;5032807;28;20045;-85
2022/07/02 12:05:35;;;;;;;0.80;0.20;;;;;;;;;;5032313;28;20040;-85
2022/07/02 12:08:01;;;;;;;3.97;0.28;;;;;;;;;;5032344;28;20029;-88
2022/07/02 12:10:26;;;;;;;2.65;0.30;;;;;;;;;;5032645;28;20043;-87
2022/07/02 12:12:52;;;;;;;2.53;0.32;;;;;;;;;;5031652;28;20034;-87
2022/07/02 12:15:17;;;;;;;1.58;0.30;;;;;;;;;;4999995;28;20098;-87
2022/07/02 12:17:49;;;;;;;1.17;0.45;;;;;;;;;;4999575;28;20045;-87
2022/07/02 12:20:16;;;;;;;0.70;0.32;;;;;;;;;;5017378;28;20083;-87
2022/07/02 12:22:41;;;;;;;1.13;0.13;;;;;;;;;;5033746;28;20069;-86
2022/07/02 12:25:07;;;;;;;3.88;0.25;;;;;;;;;;4999733;28;20033;-87
2022/07/02 12:27:34;;;;;;;9.05;0.93;;;;;;;;;;4993639;28;20041;-87
2022/07/02 12:30:11;;;;;;;1.90;0.32;;;;;;;;;;5027047;28;20040;-87
2022/07/02 12:32:38;;;;;;;0.77;0.60;;;;;;;;;;5015579;28;20125;-87
2022/07/02 12:35:08;;;;;;;3.30;0.32;;;;;;;;;;5015687;28;20475;-87
2022/07/02 12:37:35;;;;;;;3.42;0.38;;;;;;;;;;5031751;28;20033;-87
2022/07/02 12:40:18;;;;;;;1.27;0.28;;;;;;;;;;5031403;28;20049;-87
2022/07/02 12:42:57;;;;;;;0.82;0.10;;;;;;;;;;5032270;28;20034;-87
2022/07/02 12:45:23;;;;;;;0.52;0.20;;;;;;;;;;5015471;28;20152;-86
2022/07/02 12:48:08;;;;;;;0.63;0.22;;;;;;;;;;5048062;28;20041;-86
2022/07/02 12:50:36;;;;;;;1.83;0.60;;;;;;;;;;4998993;28;20021;-86
2022/07/02 12:53:09;;;;;;;1.83;0.20;;;;;;;;;;5015573;28;20065;-86
2022/07/02 12:55:36;;;;;;;1.55;0.47;;;;;;;;;;5031132;28;20036;-86
2022/07/02 12:58:03;;;;;;;1.23;0.38;;;;;;;;;;5012072;28;20034;-87
2022/07/02 13:00:30;;;;;;;0.60;0.30;;;;;;;;;;5011928;28;20042;-86
2022/07/02 13:03:02;;;;;;;3.20;0.55;;;;;;;;;;5012113;28;20052;-87
2022/07/02 13:05:28;;;;;;;0.25;0.10;;;;;;;;;;4995235;28;20045;-89
2022/07/02 13:07:53;;;;;;;3.05;0.55;;;;;;;;;;5012162;28;20038;-89
2022/07/02 13:10:19;;;;;;;0.63;0.20;;;;;;;;;;5027754;28;20045;-89
2022/07/02 13:12:44;;;;;;;0.47;0.10;;;;;;;;;;5011722;28;20105;-89
2022/07/02 13:15:10;;;;;;;1.35;0.10;;;;;;;;;;4995763;28;20030;-89
2022/07/02 13:17:35;;;;;;;1.70;0.80;;;;;;;;;;5012110;28;20528;-88
2022/07/02 13:20:01;;;;;;;0.38;0.10;;;;;;;;;;5012824;28;20030;-88
2022/07/02 13:22:26;;;;;;;1.83;0.20;;;;;;;;;;5015352;28;20033;-89
2022/07/02 13:24:55;;;;;;;1.25;0.45;;;;;;;;;;5031953;28;20033;-90
2022/07/02 13:27:21;;;;;;;3.60;0.20;;;;;;;;;;5031626;28;20511;-88
2022/07/02 13:29:46;;;;;;;2.53;0.50;;;;;;;;;;5031738;28;20083;-88
2022/07/02 13:32:11;;;;;;;0.63;0.17;;;;;;;;;;5027757;28;20038;-88
2022/07/02 13:34:37;;;;;;;1.65;0.30;;;;;;;;;;5012942;28;20044;-88
2022/07/02 13:37:03;;;;;;;1.77;0.40;;;;;;;;;;4996007;28;20037;-87
2022/07/02 13:39:30;;;;;;;0.55;0.22;;;;;;;;;;4979283;28;20054;-87
2022/07/02 13:41:58;;;;;;;2.55;0.50;;;;;;;;;;4995494;28;20037;-88
2022/07/02 13:44:23;;;;;;;1.25;0.28;;;;;;;;;;4997449;28;20033;-89
2022/07/02 13:46:49;;;;;;;2.10;0.80;;;;;;;;;;5011623;28;20034;-90
2022/07/02 13:49:14;;;;;;;2.15;0.75;;;;;;;;;;5013039;28;20044;-87
2022/07/02 13:51:40;;;;;;;3.05;0.22;;;;;;;;;;4985170;28;20033;-87
2022/07/02 13:54:05;;;;;;;1.42;0.10;;;;;;;;;;5015951;28;20084;-88
2022/07/02 13:56:31;;;;;;;0.77;0.20;;;;;;;;;;5026886;28;20030;-91
2022/07/02 13:58:56;;;;;;;2.40;0.35;;;;;;;;;;4979315;28;20052;-88
2022/07/02 14:01:23;;;;;;;0.90;0.30;;;;;;;;;;5011998;28;20124;-90
2022/07/02 14:03:49;;;;;;;1.40;0.20;;;;;;;;;;4995918;28;20038;-87
2022/07/02 14:06:14;;;;;;;0.10;0.10;;;;;;;;;;5006604;28;20163;-87
2022/07/02 14:08:40;;;;;;;0.70;0.10;;;;;;;;;;5014418;28;20484;-88
2022/07/02 14:11:08;;;;;;;1.60;0.40;;;;;;;;;;5014954;28;20053;-88
2022/07/02 14:13:33;;;;;;;2.00;0.20;;;;;;;;;;4982679;28;20052;-84
2022/07/02 14:15:59;;;;;;;0.98;0.30;;;;;;;;;;4997855;28;20041;-86
2022/07/02 14:18:24;;;;;;;4.70;0.40;;;;;;;;;;4981262;28;20480;-86
2022/07/02 14:20:49;;;;;;;3.80;0.30;;;;;;;;;;4989354;28;20464;-88
2022/07/02 14:23:15;;;;;;;3.25;0.52;;;;;;;;;;5011922;28;20034;-88
2022/07/02 14:25:40;;;;;;;2.13;0.30;;;;;;;;;;5031661;28;20045;-88
2022/07/02 14:28:06;;;;;;;2.78;0.57;;;;;;;;;;5031912;28;20033;-89
2022/07/02 14:30:31;;;;;;;4.35;0.55;;;;;;;;;;5014766;28;20041;-87
2022/07/02 14:32:57;;;;;;;2.00;0.30;;;;;;;;;;4998357;28;20030;-87
2022/07/02 14:35:22;;;;;;;1.02;0.50;;;;;;;;;;4998808;28;20034;-87
2022/07/02 14:37:48;;;;;;;2.10;0.45;;;;;;;;;;4998564;28;20056;-87
2022/07/02 14:40:13;;;;;;;0.63;0.20;;;;;;;;;;4998165;28;20033;-86
2022/07/02 14:42:39;;;;;;;1.88;0.20;;;;;;;;;;5014632;28;20420;-87
2022/07/02 14:45:04;;;;;;;1.52;0.40;;;;;;;;;;4997880;28;20044;-87
2022/07/02 14:47:30;;;;;;;3.17;0.30;;;;;;;;;;4982148;28;20041;-87
2022/07/02 14:49:55;;;;;;;2.58;0.40;;;;;;;;;;5001466;28;20035;-87